Time;durP1;ratioP1;P1;durP2;ratioP2;P2;SDS_P1;SDS_P2;PMS_P1;PMS_P2;Temp;Humidity;BMP_temperature;BMP_pressure;BME280_temperature;BME280_humidity;BME280_pressure;Samples;Min_cycle;Max_cycle;Signal;HPM_P1;HPM_P2
2022/10/30 00:02:19;;;;;;;;;;;;;;;6.01;100.00;93912.66;5131721;27;19968;-76
2022/10/30 00:04:46;;;;;;;;;;;;;;;6.00;100.00;93911.88;5132031;27;21017;-77
2022/10/30 00:07:12;;;;;;;;;;;;;;;5.98;100.00;93907.91;5131625;27;20851;-77
2022/10/30 00:09:39;;;;;;;;;;;;;;;5.96;100.00;93910.63;5131621;27;19923;-76
2022/10/30 00:12:05;;;;;;;;;;;;;;;6.00;100.00;93908.53;5131757;27;20353;-76
2022/10/30 00:14:32;;;;;;;;;;;;;;;5.97;100.00;93909.66;5131557;27;19919;-76
2022/10/30 00:16:58;;;;;;;;;;;;;;;5.97;100.00;93898.66;5131785;27;19920;-76
2022/10/30 00:19:27;;;;;;;;;;;;;;;5.93;100.00;93902.50;5131664;27;19919;-76
2022/10/30 00:21:53;;;;;;;;;;;;;;;5.85;100.00;93901.56;5131680;27;19965;-77
2022/10/30 00:24:20;;;;;;;;;;;;;;;5.81;100.00;93902.84;5131324;27;19923;-76
2022/10/30 00:26:46;;;;;;;;;;;;;;;5.75;100.00;93895.84;5131462;27;19923;-76
2022/10/30 00:29:13;;;;;;;;;;;;;;;5.71;100.00;93890.28;5131507;27;20019;-76
2022/10/30 00:31:39;;;;;;;;;;;;;;;5.67;100.00;93901.75;5131534;27;19971;-76
2022/10/30 00:34:06;;;;;;;;;;;;;;;5.64;100.00;93894.41;5131419;27;20287;-76
2022/10/30 00:36:34;;;;;;;;;;;;;;;5.60;100.00;93901.59;5131748;27;19981;-76
2022/10/30 00:39:00;;;;;;;;;;;;;;;5.55;100.00;93897.97;5131571;27;19964;-77
2022/10/30 00:41:27;;;;;;;;;;;;;;;5.49;100.00;93896.84;5131781;27;20305;-76
2022/10/30 00:43:53;;;;;;;;;;;;;;;5.52;100.00;93896.53;5131694;27;20004;-76
2022/10/30 00:46:22;;;;;;;;;;;;;;;5.52;100.00;93882.97;5131300;27;20398;-76
2022/10/30 00:48:52;;;;;;;;;;;;;;;5.50;100.00;93880.59;5131686;27;19976;-76
2022/10/30 00:51:19;;;;;;;;;;;;;;;5.47;100.00;93879.16;5131498;27;19964;-76
2022/10/30 00:53:48;;;;;;;;;;;;;;;5.46;100.00;93877.56;5131068;27;20375;-76
2022/10/30 00:56:15;;;;;;;;;;;;;;;5.48;100.00;93878.19;5131482;27;19923;-76
2022/10/30 00:58:44;;;;;;;;;;;;;;;5.51;100.00;93883.94;5131117;27;20402;-77
2022/10/30 01:01:14;;;;;;;;;;;;;;;5.47;100.00;93870.72;5131392;27;19971;-77
2022/10/30 01:03:41;;;;;;;;;;;;;;;5.41;100.00;93872.16;5132200;27;20287;-77
2022/10/30 01:06:10;;;;;;;;;;;;;;;5.41;100.00;93869.59;5132384;27;19919;-78
2022/10/30 01:08:37;;;;;;;;;;;;;;;5.42;100.00;93868.66;5132278;27;20027;-81
2022/10/30 01:11:05;;;;;;;;;;;;;;;5.42;100.00;93860.22;5132509;27;19920;-79
2022/10/30 01:13:33;;;;;;;;;;;;;;;5.40;100.00;93865.47;5128407;27;19964;-78
2022/10/30 01:16:09;;;;;;;;;;;;;;;5.38;100.00;93864.03;5129937;27;19919;-78
2022/10/30 01:18:42;;;;;;;;;;;;;;;5.41;100.00;93858.63;5131846;27;19919;-77
2022/10/30 01:21:14;;;;;;;;;;;;;;;5.40;100.00;93855.28;5131894;27;19939;-78
2022/10/30 01:23:46;;;;;;;;;;;;;;;5.35;100.00;93854.97;5132153;27;19923;-78
2022/10/30 01:26:19;;;;;;;;;;;;;;;5.29;100.00;93855.63;5132006;27;19968;-79
2022/10/30 01:28:53;;;;;;;;;;;;;;;5.30;100.00;93852.09;5132137;27;20015;-80
2022/10/30 01:31:28;;;;;;;;;;;;;;;5.37;100.00;93842.06;5132116;27;19919;-80
2022/10/30 01:34:00;;;;;;;;;;;;;;;5.38;100.00;93841.13;5131775;27;19923;-78
2022/10/30 01:36:31;;;;;;;;;;;;;;;5.34;100.00;93841.41;5132303;27;19964;-78
2022/10/30 01:38:59;;;;;;;;;;;;;;;5.30;100.00;93839.38;5132215;27;19972;-78
2022/10/30 01:41:27;;;;;;;;;;;;;;;5.27;100.00;93848.13;5130597;27;19923;-78
2022/10/30 01:43:55;;;;;;;;;;;;;;;5.25;100.00;93841.59;5131855;27;19919;-78
2022/10/30 01:46:31;;;;;;;;;;;;;;;5.20;100.00;93835.22;5131765;27;20303;-78
2022/10/30 01:49:02;;;;;;;;;;;;;;;5.21;100.00;93834.28;5132046;27;19924;-78
2022/10/30 01:51:36;;;;;;;;;;;;;;;5.18;100.00;93834.59;5131972;27;20325;-78
2022/10/30 01:54:09;;;;;;;;;;;;;;;5.16;100.00;93831.44;5131675;28;19923;-78
2022/10/30 01:56:39;;;;;;;;;;;;;;;5.19;100.00;93835.41;5131915;28;19919;-78
2022/10/30 01:59:09;;;;;;;;;;;;;;;5.18;100.00;93833.78;5131487;28;19956;-78
2022/10/30 02:01:36;;;;;;;;;;;;;;;5.17;100.00;93829.66;5130807;28;20435;-78
2022/10/30 02:04:03;;;;;;;;;;;;;;;5.16;100.00;93825.53;5130518;28;20325;-78
2022/10/30 02:06:30;;;;;;;;;;;;;;;5.13;100.00;93821.56;5130336;28;20312;-77
2022/10/30 02:08:56;;;;;;;;;;;;;;;5.15;100.00;93829.84;5130424;28;19999;-78
2022/10/30 02:11:24;;;;;;;;;;;;;;;5.16;100.00;93828.09;5130362;28;19923;-77
2022/10/30 02:13:53;;;;;;;;;;;;;;;5.12;100.00;93825.06;5130317;28;19980;-77
2022/10/30 02:16:20;;;;;;;;;;;;;;;5.13;100.00;93820.78;5130208;28;19952;-78
2022/10/30 02:18:47;;;;;;;;;;;;;;;5.13;100.00;93813.13;5130523;28;19965;-77
2022/10/30 02:21:15;;;;;;;;;;;;;;;5.11;100.00;93812.47;5130085;28;20416;-77
2022/10/30 02:23:41;;;;;;;;;;;;;;;5.03;100.00;93819.19;5130338;28;19924;-78
2022/10/30 02:26:07;;;;;;;;;;;;;;;5.00;100.00;93814.41;5130104;28;19965;-77
2022/10/30 02:28:34;;;;;;;;;;;;;;;4.99;100.00;93819.66;5130116;28;20516;-79
2022/10/30 02:31:00;;;;;;;;;;;;;;;4.97;100.00;93819.03;5130238;28;19919;-79
2022/10/30 02:33:27;;;;;;;;;;;;;;;4.95;100.00;93819.97;5130486;28;19988;-78
2022/10/30 02:35:54;;;;;;;;;;;;;;;4.97;100.00;93817.28;5129887;28;19923;-78
2022/10/30 02:38:21;;;;;;;;;;;;;;;5.01;100.00;93815.19;5130233;28;19920;-78
2022/10/30 02:40:48;;;;;;;;;;;;;;;5.02;100.00;93815.06;5130023;28;20039;-77
2022/10/30 02:43:14;;;;;;;;;;;;;;;5.02;100.00;93817.59;5129881;28;19923;-77
2022/10/30 02:45:41;;;;;;;;;;;;;;;5.01;100.00;93813.47;5130162;28;20325;-77
2022/10/30 02:48:07;;;;;;;;;;;;;;;4.99;100.00;93814.56;5130193;28;19923;-77
2022/10/30 02:50:34;;;;;;;;;;;;;;;4.96;100.00;93813.16;5130083;28;19959;-77
2022/10/30 02:53:00;;;;;;;;;;;;;;;4.99;100.00;93817.13;5131662;27;19984;-77
2022/10/30 02:55:28;;;;;;;;;;;;;;;4.99;100.00;93815.34;5119323;27;19980;-77
2022/10/30 02:57:55;;;;;;;;;;;;;;;4.97;100.00;93819.81;5133673;27;20383;-77
2022/10/30 03:00:21;;;;;;;;;;;;;;;4.96;100.00;93818.25;5133735;27;19919;-77
2022/10/30 03:02:48;;;;;;;;;;;;;;;5.01;100.00;93815.19;5133340;27;19923;-77
2022/10/30 03:05:14;;;;;;;;;;;;;;;4.97;100.00;93816.47;5133353;27;19964;-77
2022/10/30 03:07:40;;;;;;;;;;;;;;;4.97;100.00;93814.72;5133518;27;19967;-77
2022/10/30 03:10:07;;;;;;;;;;;;;;;4.99;100.00;93817.13;5133480;27;19919;-77
2022/10/30 03:12:35;;;;;;;;;;;;;;;4.97;100.00;93819.03;5133223;27;19992;-77
2022/10/30 03:15:02;;;;;;;;;;;;;;;4.97;100.00;93824.09;5133848;27;19923;-77
2022/10/30 03:17:28;;;;;;;;;;;;;;;4.96;100.00;93833.50;5133014;27;19923;-79
2022/10/30 03:19:54;;;;;;;;;;;;;;;4.85;100.00;93828.75;5133458;27;19980;-80
2022/10/30 03:22:21;;;;;;;;;;;;;;;4.81;100.00;93829.03;5133119;27;19948;-80
2022/10/30 03:24:47;;;;;;;;;;;;;;;4.76;100.00;93827.91;5133058;27;19965;-79
2022/10/30 03:27:14;;;;;;;;;;;;;;;4.76;100.00;93828.72;5133281;27;20264;-79
2022/10/30 03:29:42;;;;;;;;;;;;;;;4.74;100.00;93829.84;5133305;27;19972;-79
2022/10/30 03:32:09;;;;;;;;;;;;;;;4.72;100.00;93829.22;5133203;27;19923;-79
2022/10/30 03:34:36;;;;;;;;;;;;;;;4.65;100.00;93831.56;5133066;27;20417;-79
2022/10/30 03:37:02;;;;;;;;;;;;;;;4.62;100.00;93832.69;5132752;27;19927;-79
2022/10/30 03:39:28;;;;;;;;;;;;;;;4.60;100.00;93838.88;5132988;27;19972;-79
2022/10/30 03:41:55;;;;;;;;;;;;;;;4.61;100.00;93831.09;5133006;27;19920;-77
2022/10/30 03:44:21;;;;;;;;;;;;;;;4.60;100.00;93826.16;5132573;27;19919;-78
2022/10/30 03:46:49;;;;;;;;;;;;;;;4.61;100.00;93822.66;5132913;27;19923;-78
2022/10/30 03:49:16;;;;;;;;;;;;;;;4.59;100.00;93825.38;5132749;27;19984;-78
2022/10/30 03:51:42;;;;;;;;;;;;;;;4.57;100.00;93827.28;5132613;27;19976;-78
2022/10/30 03:54:09;;;;;;;;;;;;;;;4.58;100.00;93826.31;5132400;27;19992;-79
2022/10/30 03:56:35;;;;;;;;;;;;;;;4.55;100.00;93819.00;5132763;27;20325;-79
2022/10/30 03:59:02;;;;;;;;;;;;;;;4.53;100.00;93821.69;5132760;27;19923;-77
2022/10/30 04:01:28;;;;;;;;;;;;;;;4.47;100.00;93824.88;5132576;27;19924;-77
2022/10/30 04:03:56;;;;;;;;;;;;;;;4.44;100.00;93821.84;5131146;27;19920;-77
2022/10/30 04:06:22;;;;;;;;;;;;;;;4.44;100.00;93830.25;5122106;27;19968;-81
2022/10/30 04:08:49;;;;;;;;;;;;;;;4.41;100.00;93818.66;5128055;27;20359;-82
2022/10/30 04:11:15;;;;;;;;;;;;;;;4.38;100.00;93811.34;5132498;27;19964;-81
2022/10/30 04:13:42;;;;;;;;;;;;;;;4.38;100.00;93810.53;5132393;27;19923;-80
2022/10/30 04:16:08;;;;;;;;;;;;;;;4.28;100.00;93810.69;5132370;27;19919;-81
2022/10/30 04:18:35;;;;;;;;;;;;;;;4.26;100.00;93812.59;5132140;27;20321;-77
2022/10/30 04:21:03;;;;;;;;;;;;;;;4.30;100.00;93808.00;5132146;27;19975;-77
2022/10/30 04:23:29;;;;;;;;;;;;;;;4.33;100.00;93803.38;5132265;27;19923;-78
2022/10/30 04:25:56;;;;;;;;;;;;;;;4.32;100.00;93809.44;5131866;27;20383;-77
2022/10/30 04:28:22;;;;;;;;;;;;;;;4.30;100.00;93815.63;5132126;27;19924;-78
2022/10/30 04:30:49;;;;;;;;;;;;;;;4.33;100.00;93807.66;5132075;27;19964;-78
2022/10/30 04:33:15;;;;;;;;;;;;;;;4.33;100.00;93817.84;5131989;27;20276;-78
2022/10/30 04:35:42;;;;;;;;;;;;;;;4.08;100.00;93769.47;5131781;27;20459;-78
2022/10/30 04:38:11;;;;;;;;;;;;;;;4.30;100.00;93808.00;5112889;27;19973;-78
2022/10/30 04:40:39;;;;;;;;;;;;;;;4.30;100.00;93806.22;5130086;27;20375;-78
2022/10/30 04:43:06;;;;;;;;;;;;;;;4.25;100.00;93806.72;5131420;27;20003;-77
2022/10/30 04:45:33;;;;;;;;;;;;;;;4.25;100.00;93808.44;5128842;27;19965;-77
2022/10/30 04:48:02;;;;;;;;;;;;;;;4.23;100.00;93813.72;5131636;27;19924;-77
2022/10/30 04:50:29;;;;;;;;;;;;;;;4.24;100.00;93817.84;5127931;27;20441;-77
2022/10/30 04:52:59;;;;;;;;;;;;;;;4.24;100.00;93811.94;5120049;27;20387;-77
2022/10/30 04:55:27;;;;;;;;;;;;;;;4.23;100.00;93815.44;5128064;27;19965;-77
2022/10/30 04:57:55;;;;;;;;;;;;;;;4.20;100.00;93818.28;5129299;27;20379;-77
2022/10/30 05:00:22;;;;;;;;;;;;;;;4.18;100.00;93815.91;5111700;27;19990;-77
2022/10/30 05:02:48;;;;;;;;;;;;;;;4.17;100.00;93821.94;5110117;28;19928;-78
2022/10/30 05:05:15;;;;;;;;;;;;;;;4.16;100.00;93819.56;5112830;27;19920;-79
2022/10/30 05:07:41;;;;;;;;;;;;;;;4.13;100.00;93829.06;5113792;27;19924;-78
2022/10/30 05:10:08;;;;;;;;;;;;;;;4.13;100.00;93825.75;5127690;27;19919;-78
2022/10/30 05:12:36;;;;;;;;;;;;;;;4.14;100.00;93827.34;5111830;27;20406;-78
2022/10/30 05:15:02;;;;;;;;;;;;;;;4.16;100.00;93827.19;5119382;27;19920;-77
2022/10/30 05:17:29;;;;;;;;;;;;;;;4.18;100.00;93823.53;5118785;27;21862;-77
2022/10/30 05:19:55;;;;;;;;;;;;;;;4.23;100.00;93828.16;5116291;27;20321;-77
2022/10/30 05:22:22;;;;;;;;;;;;;;;4.27;100.00;93829.44;5109887;28;19930;-77
2022/10/30 05:24:48;;;;;;;;;;;;;;;4.33;100.00;93836.44;5113772;27;19919;-76
2022/10/30 05:27:15;;;;;;;;;;;;;;;4.38;100.00;93831.69;5113572;27;20375;-77
2022/10/30 05:29:43;;;;;;;;;;;;;;;4.38;100.00;93834.25;5128161;27;19968;-76
2022/10/30 05:32:09;;;;;;;;;;;;;;;4.39;100.00;93835.03;5130747;27;19980;-77
2022/10/30 05:34:36;;;;;;;;;;;;;;;4.40;100.00;93832.31;5130916;27;19964;-77
2022/10/30 05:37:02;;;;;;;;;;;;;;;4.44;100.00;93835.34;5130240;27;19965;-78
2022/10/30 05:39:29;;;;;;;;;;;;;;;4.44;100.00;93842.97;5130595;27;20495;-77
2022/10/30 05:41:55;;;;;;;;;;;;;;;4.46;100.00;93850.47;5130664;27;19927;-78
2022/10/30 05:44:22;;;;;;;;;;;;;;;4.50;100.00;93844.13;5130906;27;19919;-77
2022/10/30 05:46:50;;;;;;;;;;;;;;;4.53;100.00;93841.25;5130593;27;19968;-77
2022/10/30 05:49:16;;;;;;;;;;;;;;;4.55;100.00;93841.91;5127608;27;19996;-77
2022/10/30 05:51:43;;;;;;;;;;;;;;;4.58;100.00;93838.25;5114010;27;19935;-77
2022/10/30 05:54:09;;;;;;;;;;;;;;;4.63;100.00;93836.03;5129071;27;19927;-77
2022/10/30 05:56:36;;;;;;;;;;;;;;;4.67;100.00;93832.19;5130241;28;19919;-77
2022/10/30 05:59:02;;;;;;;;;;;;;;;4.76;100.00;93838.09;5130408;28;19919;-77
2022/10/30 06:01:29;;;;;;;;;;;;;;;4.81;100.00;93835.88;5130452;28;19923;-77
2022/10/30 06:03:57;;;;;;;;;;;;;;;4.88;100.00;93839.41;5130075;28;19919;-77
2022/10/30 06:06:23;;;;;;;;;;;;;;;4.97;100.00;93837.66;5130468;28;19987;-77
2022/10/30 06:08:50;;;;;;;;;;;;;;;5.02;100.00;93832.88;5130411;28;19976;-77
2022/10/30 06:11:16;;;;;;;;;;;;;;;5.10;100.00;93832.09;5130127;28;19972;-77
2022/10/30 06:13:43;;;;;;;;;;;;;;;5.19;100.00;93832.88;5130321;28;20351;-77
2022/10/30 06:16:09;;;;;;;;;;;;;;;5.30;100.00;93832.53;5130467;28;19919;-77
2022/10/30 06:18:36;;;;;;;;;;;;;;;5.40;100.00;93826.44;5130124;28;19934;-77
2022/10/30 06:21:04;;;;;;;;;;;;;;;5.48;100.00;93834.88;5130299;28;20375;-77
2022/10/30 06:23:30;;;;;;;;;;;;;;;5.57;100.00;93834.88;5130032;28;19924;-77
2022/10/30 06:25:57;;;;;;;;;;;;;;;5.49;100.00;93843.31;5130039;28;20383;-77
2022/10/30 06:28:23;;;;;;;;;;;;;;;5.66;100.00;93838.19;5133117;27;19976;-78
2022/10/30 06:30:50;;;;;;;;;;;;;;;5.68;100.00;93838.81;5134261;27;19919;-78
2022/10/30 06:33:16;;;;;;;;;;;;;;;5.84;100.00;93828.56;5134365;27;20309;-77
2022/10/30 06:35:43;;;;;;;;;;;;;;;6.01;100.00;93820.84;5134012;27;20261;-77
2022/10/30 06:38:11;;;;;;;;;;;;;;;6.14;100.00;93817.81;5133929;27;20364;-78
2022/10/30 06:40:37;;;;;;;;;;;;;;;6.32;100.00;93822.66;5134177;27;19919;-78
2022/10/30 06:43:04;;;;;;;;;;;;;;;6.43;100.00;93828.34;5116846;27;19948;-79
2022/10/30 06:45:30;;;;;;;;;;;;;;;6.55;100.00;93820.16;5129801;27;19924;-79
2022/10/30 06:47:57;;;;;;;;;;;;;;;6.64;100.00;93826.00;5133503;27;19923;-79
2022/10/30 06:50:24;;;;;;;;;;;;;;;6.86;100.00;93826.16;5133818;27;20319;-78
2022/10/30 06:52:50;;;;;;;;;;;;;;;6.91;100.00;93831.53;5133485;27;19923;-78
2022/10/30 06:55:18;;;;;;;;;;;;;;;6.91;100.00;93835.84;5133619;27;20420;-79
2022/10/30 06:57:45;;;;;;;;;;;;;;;6.99;100.00;93842.66;5133427;27;19965;-78
2022/10/30 07:00:12;;;;;;;;;;;;;;;7.13;100.00;93846.22;5133695;27;19919;-78
2022/10/30 07:02:38;;;;;;;;;;;;;;;7.24;100.00;93840.72;5133530;27;19923;-79
2022/10/30 07:05:05;;;;;;;;;;;;;;;7.42;100.00;93835.28;5133230;27;19969;-79
2022/10/30 07:07:31;;;;;;;;;;;;;;;7.65;100.00;93833.63;5133283;27;19919;-79
2022/10/30 07:09:58;;;;;;;;;;;;;;;7.81;100.00;93832.63;5133358;27;19919;-79
2022/10/30 07:12:25;;;;;;;;;;;;;;;7.91;100.00;93834.94;5133073;27;19924;-80
2022/10/30 07:14:52;;;;;;;;;;;;;;;8.16;100.00;93833.66;5133239;27;19968;-80
2022/10/30 07:17:18;;;;;;;;;;;;;;;8.37;100.00;93829.59;5133320;27;19919;-80
2022/10/30 07:19:45;;;;;;;;;;;;;;;8.61;100.00;93825.13;5133244;27;20333;-79
2022/10/30 07:22:11;;;;;;;;;;;;;;;8.77;100.00;93833.56;5133458;27;19964;-80
2022/10/30 07:24:38;;;;;;;;;;;;;;;9.00;100.00;93830.81;5133421;27;19919;-79
2022/10/30 07:27:04;;;;;;;;;;;;;;;9.20;100.00;93833.53;5132816;27;19923;-79
2022/10/30 07:29:32;;;;;;;;;;;;;;;9.45;100.00;93819.50;5132913;27;20436;-79
2022/10/30 07:31:59;;;;;;;;;;;;;;;9.58;100.00;93817.03;5132917;27;19965;-79
2022/10/30 07:34:25;;;;;;;;;;;;;;;9.79;100.00;93817.94;5132530;27;20382;-79
2022/10/30 07:36:51;;;;;;;;;;;;;;;10.01;100.00;93821.19;5132674;27;19919;-80
2022/10/30 07:39:18;;;;;;;;;;;;;;;10.23;100.00;93813.38;5132525;27;19927;-80
2022/10/30 07:41:45;;;;;;;;;;;;;;;10.43;100.00;93817.84;5132906;27;19971;-80
2022/10/30 07:44:11;;;;;;;;;;;;;;;10.59;100.00;93819.25;5132502;27;19919;-80
2022/10/30 07:46:39;;;;;;;;;;;;;;;10.65;100.00;93815.91;5132876;27;19919;-80
2022/10/30 07:49:05;;;;;;;;;;;;;;;10.83;100.00;93814.53;5129095;27;20395;-79
2022/10/30 07:51:32;;;;;;;;;;;;;;;11.03;100.00;93822.28;5130777;27;19924;-79
2022/10/30 07:53:58;;;;;;;;;;;;;;;11.23;100.00;93817.16;5131522;27;19923;-79
2022/10/30 07:56:25;;;;;;;;;;;;;;;11.39;100.00;93814.38;5132366;27;19919;-81
2022/10/30 07:58:51;;;;;;;;;;;;;;;11.60;100.00;93815.91;5132881;27;20313;-80
2022/10/30 08:01:18;;;;;;;;;;;;;;;11.89;100.00;93817.25;5129011;27;19957;-78
2022/10/30 08:03:45;;;;;;;;;;;;;;;12.14;100.00;93816.59;5110243;27;19935;-78
2022/10/30 08:06:12;;;;;;;;;;;;;;;12.33;100.00;93803.84;5112409;27;19972;-78
2022/10/30 08:08:38;;;;;;;;;;;;;;;12.60;100.00;93805.50;5119713;27;19968;-78
2022/10/30 08:11:05;;;;;;;;;;;;;;;12.80;100.00;93803.59;5131551;27;20445;-78
2022/10/30 08:13:31;;;;;;;;;;;;;;;13.05;100.00;93799.47;5132273;27;20435;-78
2022/10/30 08:15:58;;;;;;;;;;;;;;;13.29;100.00;93800.44;5132347;27;19919;-78
2022/10/30 08:18:25;;;;;;;;;;;;;;;13.52;100.00;93798.31;5127857;27;19964;-78
2022/10/30 08:20:53;;;;;;;;;;;;;;;13.79;100.00;93792.88;5122383;27;19919;-78
2022/10/30 08:23:20;;;;;;;;;;;;;;;14.05;99.01;93796.97;5131784;27;19964;-78
2022/10/30 08:25:47;;;;;;;;;;;;;;;14.23;96.92;93795.34;5131768;27;19938;-78
2022/10/30 08:28:14;;;;;;;;;;;;;;;14.45;96.26;93787.94;5132090;27;19919;-78
2022/10/30 08:30:40;;;;;;;;;;;;;;;14.70;93.90;93790.38;5131716;27;19923;-79
2022/10/30 08:33:07;;;;;;;;;;;;;;;14.89;92.46;93790.34;5131678;27;20321;-79
2022/10/30 08:35:34;;;;;;;;;;;;;;;15.06;91.24;93785.31;5131698;27;19919;-79
2022/10/30 08:38:05;;;;;;;;;;;;;;;15.30;89.31;93789.72;5132107;27;19964;-78
2022/10/30 08:40:31;;;;;;;;;;;;;;;15.48;87.69;93791.41;5131732;27;19964;-79
2022/10/30 08:42:58;;;;;;;;;;;;;;;15.68;84.49;93792.84;5131378;27;20003;-80
2022/10/30 08:45:24;;;;;;;;;;;;;;;15.66;81.78;93797.47;5131525;27;19923;-80
2022/10/30 08:47:56;;;;;;;;;;;;;;;15.70;82.98;93783.84;5131892;27;19982;-80
2022/10/30 08:50:23;;;;;;;;;;;;;;;15.80;82.83;93795.44;5130996;27;19923;-79
2022/10/30 08:52:58;;;;;;;;;;;;;;;15.97;83.20;93792.97;5131200;27;19923;-79
2022/10/30 08:55:26;;;;;;;;;;;;;;;16.19;83.46;93790.53;5129987;27;20198;-79
2022/10/30 08:57:52;;;;;;;;;;;;;;;16.41;84.06;93774.34;5132189;27;19919;-79
2022/10/30 09:00:19;;;;;;;;;;;;;;;16.45;81.61;93780.66;5131610;27;19968;-79
2022/10/30 09:02:45;;;;;;;;;;;;;;;16.56;79.72;93773.81;5131266;27;19919;-78
2022/10/30 09:05:40;;;;;;;;;;;;;;;16.75;80.67;93774.41;5130741;27;19976;-79
2022/10/30 09:08:06;;;;;;;;;;;;;;;16.65;78.17;93775.03;5121598;27;19925;-80
2022/10/30 09:10:34;;;;;;;;;;;;;;;16.85;77.50;93775.63;5131769;27;20340;-79
2022/10/30 09:13:02;;;;;;;;;;;;;;;16.88;76.42;93773.34;5131541;27;19972;-79
2022/10/30 09:15:28;;;;;;;;;;;;;;;17.16;77.89;93765.72;5131600;27;19928;-80
2022/10/30 09:17:56;;;;;;;;;;;;;;;17.28;73.71;93770.84;5130904;27;19919;-79
2022/10/30 09:20:22;;;;;;;;;;;;;;;17.40;74.05;93762.97;5130913;27;19924;-80
2022/10/30 09:22:49;;;;;;;;;;;;;;;17.56;74.51;93767.34;5131029;27;20379;-79
2022/10/30 09:25:15;;;;;;;;;;;;;;;17.80;76.61;93758.53;5131002;27;19968;-80
2022/10/30 09:27:43;;;;;;;;;;;;;;;17.99;75.23;93765.03;5130992;27;19944;-79
2022/10/30 09:30:11;;;;;;;;;;;;;;;18.22;73.73;93759.84;5130970;27;20383;-79
2022/10/30 09:32:37;;;;;;;;;;;;;;;18.43;73.30;93753.81;5130826;27;19923;-80
2022/10/30 09:35:04;;;;;;;;;;;;;;;18.62;70.91;93763.91;5130949;27;19976;-81
2022/10/30 09:37:33;;;;;;;;;;;;;;;18.79;71.05;93761.19;5130894;27;19923;-81
2022/10/30 09:39:59;;;;;;;;;;;;;;;19.02;69.47;93753.28;5130703;27;20447;-81
2022/10/30 09:42:40;;;;;;;;;;;;;;;19.14;68.86;93750.53;5130722;27;19945;-81
2022/10/30 09:45:18;;;;;;;;;;;;;;;19.11;66.79;93762.22;5130622;27;19923;-80
2022/10/30 09:47:50;;;;;;;;;;;;;;;19.04;68.26;93756.47;5130848;27;19923;-80
2022/10/30 09:50:24;;;;;;;;;;;;;;;19.22;68.32;93755.28;5131312;27;19919;-80
2022/10/30 09:52:57;;;;;;;;;;;;;;;19.32;69.04;93749.34;5130880;27;19965;-79
2022/10/30 09:55:34;;;;;;;;;;;;;;;19.34;67.00;93744.66;5130392;27;20406;-80
2022/10/30 09:58:06;;;;;;;;;;;;;;;19.50;68.65;93740.34;5130791;28;19980;-80
2022/10/30 10:00:37;;;;;;;;;;;;;;;19.70;68.39;93737.06;5108477;28;19923;-80
2022/10/30 10:03:08;;;;;;;;;;;;;;;19.85;67.81;93728.53;5121031;27;19975;-80
2022/10/30 10:05:40;;;;;;;;;;;;;;;19.77;65.72;93735.00;5133603;27;20283;-79
2022/10/30 10:08:09;;;;;;;;;;;;;;;19.99;67.15;93723.66;5134781;27;19919;-79
2022/10/30 10:10:38;;;;;;;;;;;;;;;20.10;65.67;93728.91;5134485;27;20031;-80
2022/10/30 10:13:05;;;;;;;;;;;;;;;20.13;63.37;93720.56;5134719;27;19992;-81
2022/10/30 10:15:38;;;;;;;;;;;;;;;20.24;64.24;93719.56;5134611;27;19919;-80
2022/10/30 10:18:11;;;;;;;;;;;;;;;20.44;64.67;93710.19;5134485;27;19976;-79
2022/10/30 10:20:40;;;;;;;;;;;;;;;20.66;61.44;93712.56;5134643;27;19919;-81
2022/10/30 10:23:12;;;;;;;;;;;;;;;20.66;58.61;93704.75;5134206;27;19919;-79
2022/10/30 10:25:42;;;;;;;;;;;;;;;20.87;57.38;93707.38;5134084;27;19968;-79
2022/10/30 10:28:15;;;;;;;;;;;;;;;20.97;57.50;93709.22;5134278;27;19920;-79
2022/10/30 10:30:48;;;;;;;;;;;;;;;21.11;53.92;93696.41;5133902;27;19972;-79
2022/10/30 10:33:39;;;;;;;;;;;;;;;21.21;55.46;93690.38;5134447;27;19961;-78
2022/10/30 10:36:10;;;;;;;;;;;;;;;21.39;54.93;93686.41;5108524;27;20394;-81
2022/10/30 10:38:45;;;;;;;;;;;;;;;21.59;53.29;93685.56;5134294;27;19976;-80
2022/10/30 10:41:18;;;;;;;;;;;;;;;21.69;50.93;93674.28;5134301;27;20347;-80
2022/10/30 10:44:00;;;;;;;;;;;;;;;21.83;51.14;93674.50;5118212;27;19930;-79
2022/10/30 10:46:36;;;;;;;;;;;;;;;21.95;48.04;93660.34;5129572;27;20379;-79
2022/10/30 10:49:13;;;;;;;;;;;;;;;22.03;47.60;93651.91;5124865;27;19928;-79
2022/10/30 10:51:41;;;;;;;;;;;;;;;22.07;45.96;93652.16;5114820;27;19924;-79
2022/10/30 10:54:12;;;;;;;;;;;;;;;22.20;47.06;93645.53;5115276;27;19935;-80
2022/10/30 10:56:50;;;;;;;;;;;;;;;22.32;46.40;93643.38;5117780;27;20014;-79
2022/10/30 10:59:21;;;;;;;;;;;;;;;22.29;43.61;93642.09;5115527;27;19920;-80
2022/10/30 11:01:53;;;;;;;;;;;;;;;22.40;44.40;93632.31;5127599;27;19930;-79
2022/10/30 11:04:25;;;;;;;;;;;;;;;22.32;44.31;93632.91;5130125;27;20006;-80
2022/10/30 11:06:54;;;;;;;;;;;;;;;22.45;44.63;93623.63;5123467;27;19919;-81
2022/10/30 11:09:22;;;;;;;;;;;;;;;22.49;42.52;93622.03;5129152;27;19964;-81
2022/10/30 11:11:49;;;;;;;;;;;;;;;22.56;42.45;93619.13;5117954;27;19954;-80
2022/10/30 11:14:16;;;;;;;;;;;;;;;22.53;41.23;93617.06;5126894;27;19964;-80
2022/10/30 11:16:59;;;;;;;;;;;;;;;22.51;40.87;93613.91;5124333;27;19931;-82
2022/10/30 11:19:34;;;;;;;;;;;;;;;22.48;42.50;93604.78;5128985;27;19923;-84
2022/10/30 11:22:00;;;;;;;;;;;;;;;22.51;43.26;93603.44;5132854;27;19933;-83
2022/10/30 11:24:28;;;;;;;;;;;;;;;22.54;42.98;93595.84;5133254;27;19919;-82
2022/10/30 11:26:56;;;;;;;;;;;;;;;22.68;43.38;93590.75;5133350;27;19964;-80
2022/10/30 11:29:24;;;;;;;;;;;;;;;22.69;42.37;93592.31;5133475;27;20122;-80
2022/10/30 11:32:01;;;;;;;;;;;;;;;22.68;42.05;93588.13;5133048;27;19926;-81
2022/10/30 11:34:32;;;;;;;;;;;;;;;22.83;41.82;93589.03;5133082;27;19943;-81
2022/10/30 11:36:59;;;;;;;;;;;;;;;22.17;41.71;93589.28;5133364;27;19965;-81
2022/10/30 11:39:25;;;;;;;;;;;;;;;;;;5133166;27;19923;-81
2022/10/30 11:41:58;;;;;;;;;;;;;;;22.06;41.31;93577.34;5132992;27;19941;-81
2022/10/30 11:44:27;;;;;;;;;;;;;;;22.13;41.76;93572.59;5132656;27;20704;-81
2022/10/30 11:46:54;;;;;;;;;;;;;;;22.18;41.92;93569.16;5132723;27;20452;-81
2022/10/30 11:49:29;;;;;;;;;;;;;;;22.18;40.67;93575.19;5133095;27;19926;-83
2022/10/30 11:51:56;;;;;;;;;;;;;;;22.22;41.22;93565.72;5132723;27;19976;-75
2022/10/30 11:54:23;;;;;;;;;;;;;;;22.29;41.35;93568.81;5132777;27;20264;-79
2022/10/30 11:56:50;;;;;;;;;;;;;;;22.21;41.13;93574.63;5132695;27;19935;-78
2022/10/30 11:59:18;;;;;;;;;;;;;;;22.11;40.77;93572.06;5132835;27;19919;-78
2022/10/30 12:01:57;;;;;;;;;;;;;;;22.18;41.45;93563.91;5132193;27;20387;-78
2022/10/30 12:04:26;;;;;;;;;;;;;;;21.85;41.34;93567.81;5132867;27;19919;-77
2022/10/30 12:07:06;;;;;;;;;;;;;;;21.70;41.96;93567.88;5132272;27;19919;-78
2022/10/30 12:09:41;;;;;;;;;;;;;;;21.76;42.81;93567.59;5132421;27;20552;-77
2022/10/30 12:12:10;;;;;;;;;;;;;;;21.76;42.06;93562.38;5131983;27;20371;-77
2022/10/30 12:14:37;;;;;;;;;;;;;;;21.77;42.01;93557.94;5132557;27;19923;-77
2022/10/30 12:17:04;;;;;;;;;;;;;;;22.06;43.37;93554.59;5132166;27;20924;-78
2022/10/30 12:19:31;;;;;;;;;;;;;;;22.18;41.56;93561.31;5132460;27;19923;-78
2022/10/30 12:22:00;;;;;;;;;;;;;;;22.14;41.44;93561.06;5131902;27;19920;-77
2022/10/30 12:24:30;;;;;;;;;;;;;;;22.24;41.14;93553.16;5131466;27;19923;-78
2022/10/30 12:26:57;;;;;;;;;;;;;;;22.22;40.38;93549.25;5131682;27;19920;-77
2022/10/30 12:29:25;;;;;;;;;;;;;;;22.40;41.11;93558.25;5131881;27;19992;-78
2022/10/30 12:31:54;;;;;;;;;;;;;;;22.16;41.96;93551.91;5132187;27;19923;-79
2022/10/30 12:34:29;;;;;;;;;;;;;;;21.84;42.13;93552.41;5132093;27;19943;-78
2022/10/30 12:36:59;;;;;;;;;;;;;;;21.56;43.56;93557.25;5132004;27;20018;-78
2022/10/30 12:39:31;;;;;;;;;;;;;;;21.60;43.47;93556.44;5131455;27;20420;-78
2022/10/30 12:42:00;;;;;;;;;;;;;;;21.73;42.63;93543.84;5131954;27;19919;-77
2022/10/30 12:44:29;;;;;;;;;;;;;;;21.60;42.97;93551.19;5131526;27;19919;-78
2022/10/30 12:46:59;;;;;;;;;;;;;;;21.61;42.88;93544.91;5131889;27;19927;-78
2022/10/30 12:49:29;;;;;;;;;;;;;;;21.70;42.99;93544.34;5131337;27;19923;-78
2022/10/30 12:51:58;;;;;;;;;;;;;;;21.71;43.17;93546.72;5131453;27;20440;-78
2022/10/30 12:54:30;;;;;;;;;;;;;;;21.39;43.16;93553.16;5131636;27;19976;-78